createdAt,value
2023-05-14T00:01:56.317Z,72.43
2023-05-14T00:04:24.718Z,72.50
2023-05-14T00:06:53.095Z,72.53
2023-05-14T00:09:21.440Z,72.76
2023-05-14T00:11:49.862Z,72.89
2023-05-14T00:14:18.259Z,72.75
2023-05-14T00:16:46.815Z,73.01
2023-05-14T00:19:15.191Z,72.92
2023-05-14T00:21:43.556Z,72.85
2023-05-14T00:24:12.017Z,72.98
2023-05-14T00:26:40.513Z,73.17
2023-05-14T00:29:08.890Z,73.01
2023-05-14T00:31:37.301Z,73.20
2023-05-14T00:34:06.220Z,73.23
2023-05-14T00:36:34.579Z,73.36
2023-05-14T00:39:03.780Z,73.75
2023-05-14T00:41:32.180Z,73.71
2023-05-14T00:44:00.588Z,73.94
2023-05-14T00:46:29.153Z,74.13
2023-05-14T00:48:58.751Z,74.33
2023-05-14T00:51:27.332Z,74.58
2023-05-14T00:53:55.861Z,74.53
2023-05-14T00:56:24.917Z,74.67
2023-05-14T00:58:53.347Z,74.54
2023-05-14T01:01:21.992Z,74.73
2023-05-14T01:03:53.450Z,74.72
2023-05-14T01:06:52.004Z,74.79
2023-05-14T01:09:32.611Z,74.63
2023-05-14T01:12:15.301Z,74.49
2023-05-14T01:15:01.295Z,74.72
2023-05-14T01:17:33.192Z,74.58
2023-05-14T01:20:02.423Z,74.48
2023-05-14T01:22:30.765Z,74.59
2023-05-14T01:24:59.337Z,74.68
2023-05-14T01:28:05.626Z,74.52
2023-05-14T01:31:17.911Z,74.68
2023-05-14T01:33:49.356Z,74.89
2023-05-14T01:36:18.212Z,74.75
2023-05-14T01:38:49.446Z,74.67
2023-05-14T01:41:19.429Z,74.73
2023-05-14T01:43:48.026Z,74.72
2023-05-14T01:46:19.733Z,74.75
2023-05-14T01:48:48.208Z,74.73
2023-05-14T01:51:16.871Z,74.74
2023-05-14T01:53:45.349Z,74.93
2023-05-14T01:56:13.749Z,74.86
2023-05-14T01:58:42.115Z,75.19
2023-05-14T02:01:10.571Z,75.24
2023-05-14T02:03:38.954Z,75.29
2023-05-14T02:06:07.534Z,75.23
2023-05-14T02:08:35.886Z,75.32
2023-05-14T02:11:04.331Z,75.43
2023-05-14T02:13:32.717Z,75.64
2023-05-14T02:16:01.077Z,75.43
2023-05-14T02:18:29.506Z,75.87
2023-05-14T02:20:57.926Z,75.96
2023-05-14T02:23:37.903Z,76.20
2023-05-14T02:26:11.352Z,76.39
2023-05-14T02:28:39.878Z,76.57
2023-05-14T02:31:08.311Z,76.76
2023-05-14T02:33:36.949Z,76.88
2023-05-14T02:36:05.709Z,77.01
2023-05-14T02:38:34.136Z,77.19
2023-05-14T02:41:02.672Z,77.35
2023-05-14T02:43:31.143Z,77.38
2023-05-14T02:45:59.602Z,77.34
2023-05-14T02:48:28.057Z,77.22
2023-05-14T02:50:56.413Z,77.15
2023-05-14T02:53:24.834Z,76.91
2023-05-14T02:55:53.193Z,76.81
2023-05-14T02:58:25.760Z,76.80
2023-05-14T03:00:57.045Z,76.93
2023-05-14T03:03:25.981Z,77.22
2023-05-14T03:05:54.532Z,77.23
2023-05-14T03:08:23.222Z,77.38
2023-05-14T03:10:51.599Z,77.50
2023-05-14T03:13:20.819Z,77.45
2023-05-14T03:15:49.475Z,77.51
2023-05-14T03:18:17.896Z,77.42
2023-05-14T03:20:46.387Z,77.79
2023-05-14T03:23:15.248Z,78.02
2023-05-14T03:25:43.580Z,78.45
2023-05-14T03:28:12.040Z,78.70
2023-05-14T03:30:40.430Z,78.66
2023-05-14T03:33:08.908Z,78.70
2023-05-14T03:35:37.262Z,78.84
2023-05-14T03:38:05.863Z,78.93
2023-05-14T03:40:34.305Z,78.85
2023-05-14T03:43:02.680Z,78.80
2023-05-14T03:45:31.134Z,79.13
2023-05-14T03:47:59.616Z,79.47
2023-05-14T03:50:28.273Z,79.59
2023-05-14T03:52:56.610Z,79.70
2023-05-14T03:55:25.044Z,79.91
2023-05-14T03:57:53.380Z,79.88
2023-05-14T04:00:22.002Z,80.04
2023-05-14T04:02:50.711Z,80.28
2023-05-14T04:05:19.235Z,80.22
2023-05-14T04:07:47.626Z,80.46
2023-05-14T04:10:15.964Z,80.46
2023-05-14T04:12:44.414Z,80.53
2023-05-14T04:15:12.792Z,80.78
2023-05-14T04:17:41.255Z,80.89
2023-05-14T04:20:10.289Z,80.92
2023-05-14T04:22:42.243Z,81.03
2023-05-14T04:25:10.790Z,81.12
2023-05-14T04:27:39.198Z,81.18
2023-05-14T04:30:08.606Z,81.30
2023-05-14T04:32:36.981Z,81.39
2023-05-14T04:35:07.262Z,81.50
2023-05-14T04:37:35.818Z,81.44
2023-05-14T04:40:08.214Z,81.49
2023-05-14T04:42:37.028Z,81.53
2023-05-14T04:45:07.131Z,81.68
2023-05-14T04:47:36.094Z,81.56
2023-05-14T04:50:05.259Z,81.58
2023-05-14T04:52:33.541Z,81.43
2023-05-14T04:55:02.031Z,81.53
2023-05-14T04:57:30.346Z,81.46
2023-05-14T04:59:58.660Z,81.43
2023-05-14T05:02:27.017Z,81.30
2023-05-14T05:04:55.417Z,81.30
2023-05-14T05:07:24.785Z,81.22
2023-05-14T05:09:53.131Z,81.26
2023-05-14T05:12:21.537Z,81.18
2023-05-14T05:14:49.838Z,81.06
2023-05-14T05:17:18.157Z,80.97
2023-05-14T05:19:46.667Z,80.96
2023-05-14T05:22:15.142Z,80.92
2023-05-14T05:24:43.652Z,80.78
2023-05-14T05:27:12.899Z,80.57
2023-05-14T05:29:41.264Z,80.43
2023-05-14T05:32:09.641Z,80.22
2023-05-14T05:34:38.002Z,80.13
2023-05-14T05:37:06.530Z,79.52
2023-05-14T05:39:35.212Z,79.29
2023-05-14T05:42:05.942Z,78.92
2023-05-14T05:44:34.599Z,78.55
2023-05-14T05:47:03.069Z,78.41
2023-05-14T05:49:31.769Z,78.20
2023-05-14T05:52:00.248Z,77.90
2023-05-14T05:54:28.529Z,77.78
2023-05-14T05:56:56.849Z,77.50
2023-05-14T05:59:25.626Z,77.18
2023-05-14T06:01:54.052Z,77.09
2023-05-14T06:04:22.475Z,76.95
2023-05-14T06:06:50.898Z,76.73
2023-05-14T06:09:19.300Z,76.42
2023-05-14T06:11:47.720Z,75.71
2023-05-14T06:14:16.026Z,75.36
2023-05-14T06:16:44.576Z,75.15
2023-05-14T06:19:12.953Z,74.91
2023-05-14T06:21:41.498Z,74.67
2023-05-14T06:24:10.288Z,74.54
2023-05-14T06:26:38.676Z,74.25
2023-05-14T06:29:07.181Z,74.13
2023-05-14T06:31:35.638Z,73.54
2023-05-14T06:34:04.030Z,73.21
2023-05-14T06:36:32.514Z,72.87
2023-05-14T06:41:32.661Z,72.52
2023-05-14T06:44:01.061Z,72.08
2023-05-14T06:46:29.393Z,72.08
2023-05-14T06:48:59.529Z,71.79
2023-05-14T06:51:28.180Z,71.63
2023-05-14T06:54:00.795Z,71.63
2023-05-14T06:56:32.025Z,71.37
2023-05-14T06:59:03.603Z,71.07
2023-05-14T07:01:32.911Z,70.92
2023-05-14T07:04:03.198Z,70.95
2023-05-14T07:06:32.646Z,71.00
2023-05-14T07:09:04.249Z,70.66
2023-05-14T07:11:33.742Z,70.63
2023-05-14T07:14:03.035Z,70.54
2023-05-14T07:16:40.424Z,69.89
2023-05-14T07:19:09.080Z,69.78
2023-05-14T07:21:37.965Z,70.01
2023-05-14T07:24:08.085Z,69.50
2023-05-14T07:26:36.555Z,69.37
2023-05-14T07:29:05.030Z,69.05
2023-05-14T07:31:34.080Z,68.82
2023-05-14T07:34:03.056Z,68.94
2023-05-14T07:36:32.106Z,68.76
2023-05-14T07:39:00.752Z,68.30
2023-05-14T07:41:29.229Z,67.98
2023-05-14T07:43:57.603Z,67.67
2023-05-14T07:46:26.289Z,68.13
2023-05-14T07:48:54.724Z,67.85
2023-05-14T07:51:24.082Z,67.85
2023-05-14T07:53:52.457Z,67.72
2023-05-14T07:56:24.118Z,67.61
2023-05-14T07:58:52.763Z,67.81
2023-05-14T08:01:23.039Z,67.51
2023-05-14T08:03:51.492Z,67.30
2023-05-14T08:06:21.900Z,67.37
2023-05-14T08:08:50.284Z,66.88
2023-05-14T08:11:18.857Z,66.49
2023-05-14T08:13:47.258Z,66.24
2023-05-14T08:16:15.748Z,65.81
2023-05-14T08:18:44.125Z,65.46
2023-05-14T08:21:12.601Z,65.59
2023-05-14T08:23:41.015Z,65.50
2023-05-14T08:26:09.499Z,65.22
2023-05-14T08:28:37.830Z,65.14
2023-05-14T08:31:06.534Z,64.52
2023-05-14T08:33:34.855Z,64.61
2023-05-14T08:36:03.649Z,64.56
2023-05-14T08:38:32.210Z,64.42
2023-05-14T08:41:00.640Z,64.29
2023-05-14T08:44:13.502Z,64.29
2023-05-14T08:46:42.265Z,64.15
2023-05-14T08:49:47.220Z,63.97
2023-05-14T08:52:18.180Z,64.01
2023-05-14T08:54:50.753Z,63.79
2023-05-14T08:57:25.823Z,63.67
2023-05-14T08:59:54.442Z,63.38
2023-05-14T09:02:30.158Z,63.41
2023-05-14T09:05:01.892Z,62.73
2023-05-14T09:07:30.314Z,62.67
2023-05-14T09:09:59.818Z,62.60
2023-05-14T09:12:28.517Z,62.13
2023-05-14T09:14:57.125Z,61.70
2023-05-14T09:17:27.909Z,61.42
2023-05-14T09:19:56.396Z,60.77
2023-05-14T09:22:24.806Z,60.71
2023-05-14T09:25:05.913Z,60.71
2023-05-14T09:27:35.512Z,60.17
2023-05-14T09:30:13.070Z,60.38
2023-05-14T09:32:44.548Z,60.33
2023-05-14T09:35:23.088Z,60.27
2023-05-14T09:37:54.126Z,60.10
2023-05-14T09:40:24.485Z,59.58
2023-05-14T09:42:53.382Z,59.35
2023-05-14T09:45:21.943Z,59.16
2023-05-14T09:47:50.482Z,58.85
2023-05-14T09:50:18.881Z,58.31
2023-05-14T09:52:47.817Z,58.19
2023-05-14T09:55:16.303Z,57.95
2023-05-14T09:57:45.104Z,57.52
2023-05-14T10:00:14.393Z,57.72
2023-05-14T10:02:45.855Z,57.65
2023-05-14T10:05:15.966Z,57.96
2023-05-14T10:07:49.528Z,57.94
2023-05-14T10:10:27.212Z,57.57
2023-05-14T10:13:05.757Z,56.69
2023-05-14T10:15:41.651Z,56.52
2023-05-14T10:18:16.220Z,56.51
2023-05-14T10:20:48.658Z,56.12
2023-05-14T10:23:17.775Z,55.42
2023-05-14T10:25:46.490Z,54.98
2023-05-14T10:28:15.020Z,54.58
2023-05-14T10:30:46.984Z,54.42
2023-05-14T10:33:51.060Z,54.39
2023-05-14T10:36:20.569Z,53.79
2023-05-14T10:38:57.086Z,53.34
2023-05-14T10:41:25.799Z,53.51
2023-05-14T10:43:57.484Z,53.60
2023-05-14T10:46:25.892Z,53.43
2023-05-14T10:48:54.236Z,52.82
2023-05-14T10:51:23.452Z,52.13
2023-05-14T10:53:52.570Z,51.59
2023-05-14T10:56:21.550Z,51.27
2023-05-14T10:58:50.044Z,50.80
2023-05-14T11:01:18.416Z,50.70
2023-05-14T11:03:47.148Z,50.38
2023-05-14T11:06:16.447Z,49.78
2023-05-14T11:08:46.450Z,48.98
2023-05-14T11:11:15.058Z,48.57
2023-05-14T11:13:44.682Z,48.38
2023-05-14T11:16:23.361Z,48.54
2023-05-14T11:19:03.967Z,48.27
2023-05-14T11:21:32.939Z,48.31
2023-05-14T11:24:01.682Z,48.27
2023-05-14T11:26:31.805Z,48.15
2023-05-14T11:29:00.181Z,47.96
2023-05-14T11:31:28.549Z,47.76
2023-05-14T11:33:56.981Z,47.26
2023-05-14T11:36:25.313Z,46.18
2023-05-14T11:38:53.634Z,45.57
2023-05-14T11:41:23.156Z,45.27
2023-05-14T11:43:52.535Z,44.99
2023-05-14T11:46:21.724Z,44.87
2023-05-14T11:48:50.749Z,44.81
2023-05-14T11:51:19.119Z,44.71
2023-05-14T11:53:47.562Z,44.85
2023-05-14T11:56:16.301Z,44.74
2023-05-14T11:58:49.186Z,44.79
2023-05-14T12:01:17.614Z,45.01
2023-05-14T12:03:46.149Z,45.48
2023-05-14T12:06:15.029Z,45.98
2023-05-14T12:08:43.329Z,45.67
2023-05-14T12:11:14.128Z,44.66
2023-05-14T12:13:42.417Z,44.21
2023-05-14T12:16:10.930Z,43.98
2023-05-14T12:18:39.330Z,43.95
2023-05-14T12:21:08.630Z,43.79
2023-05-14T12:23:38.898Z,43.81
2023-05-14T12:26:09.440Z,43.52
2023-05-14T12:28:43.359Z,43.06
2023-05-14T12:31:12.036Z,43.05
2023-05-14T12:33:40.534Z,42.70
2023-05-14T12:36:21.423Z,42.46
2023-05-14T12:38:56.883Z,42.97
2023-05-14T12:41:25.199Z,43.29
2023-05-14T12:43:53.728Z,43.30
2023-05-14T12:46:22.327Z,43.39
2023-05-14T12:48:53.186Z,43.45
2023-05-14T12:51:22.588Z,43.25
2023-05-14T12:53:52.194Z,43.38
2023-05-14T12:56:22.091Z,43.25
2023-05-14T12:58:50.483Z,42.89
2023-05-14T13:01:19.024Z,42.82
2023-05-14T13:03:47.608Z,42.84
2023-05-14T13:06:16.307Z,42.70
2023-05-14T13:08:44.834Z,42.65
2023-05-14T13:11:13.359Z,42.69
2023-05-14T13:13:41.688Z,42.85
2023-05-14T13:16:10.209Z,42.74
2023-05-14T13:18:38.551Z,42.44
2023-05-14T13:21:07.015Z,42.58
2023-05-14T13:23:35.709Z,42.93
2023-05-14T13:26:04.394Z,42.88
2023-05-14T13:28:32.789Z,42.60
2023-05-14T13:31:06.991Z,42.73
2023-05-14T13:33:43.994Z,42.90
2023-05-14T13:36:15.197Z,42.86
2023-05-14T13:38:45.846Z,43.00
2023-05-14T13:41:14.242Z,43.09
2023-05-14T13:43:42.589Z,43.16
2023-05-14T13:46:11.005Z,43.25
2023-05-14T13:48:39.420Z,43.69
2023-05-14T13:51:07.831Z,43.38
2023-05-14T13:53:36.404Z,43.27
2023-05-14T13:56:06.516Z,43.72
2023-05-14T13:58:34.977Z,44.02
2023-05-14T14:01:04.685Z,43.84
2023-05-14T14:03:34.183Z,43.72
2023-05-14T14:06:02.485Z,43.36
2023-05-14T14:08:31.239Z,43.47
2023-05-14T14:10:59.587Z,43.23
2023-05-14T14:13:29.463Z,43.11
2023-05-14T14:15:57.905Z,43.31
2023-05-14T14:18:26.871Z,43.60
2023-05-14T14:20:55.454Z,43.46
2023-05-14T14:23:23.940Z,43.63
2023-05-14T14:25:52.334Z,43.62
2023-05-14T14:28:20.774Z,43.71
2023-05-14T14:30:50.525Z,43.71
2023-05-14T14:33:18.858Z,43.57
2023-05-14T14:35:47.416Z,43.79
2023-05-14T14:38:15.855Z,43.84
2023-05-14T14:40:44.478Z,44.08
2023-05-14T14:43:12.996Z,44.20
2023-05-14T14:45:42.877Z,44.32
2023-05-14T14:48:37.305Z,44.67
2023-05-14T14:51:07.991Z,44.68
2023-05-14T14:53:37.205Z,44.66
2023-05-14T14:56:06.576Z,44.92
2023-05-14T14:58:35.008Z,45.25
2023-05-14T15:01:03.864Z,45.53
2023-05-14T15:03:32.554Z,45.84
2023-05-14T15:06:01.119Z,45.97
2023-05-14T15:08:29.497Z,46.18
2023-05-14T15:10:58.033Z,46.20
2023-05-14T15:13:29.325Z,46.55
2023-05-14T15:15:57.792Z,46.76
2023-05-14T15:18:26.507Z,47.07
2023-05-14T15:20:56.007Z,47.86
2023-05-14T15:23:24.608Z,48.20
2023-05-14T15:25:53.036Z,48.73
2023-05-14T15:28:21.396Z,48.66
2023-05-14T15:30:49.849Z,49.05
2023-05-14T15:33:19.376Z,49.54
2023-05-14T15:35:48.055Z,49.84
2023-05-14T15:38:16.526Z,50.17
2023-05-14T15:40:44.941Z,50.02
2023-05-14T15:43:13.340Z,50.13
2023-05-14T15:45:45.622Z,50.11
2023-05-14T15:48:14.102Z,50.32
2023-05-14T15:50:42.649Z,50.48
2023-05-14T15:53:10.979Z,50.64
2023-05-14T15:58:50.649Z,50.64
2023-05-14T16:01:19.783Z,50.94
2023-05-14T16:03:48.300Z,51.13
2023-05-14T16:06:17.155Z,50.95
2023-05-14T16:08:45.535Z,50.80
2023-05-14T16:11:13.900Z,51.06
2023-05-14T16:13:42.289Z,50.81
2023-05-14T16:16:10.845Z,50.73
2023-05-14T16:18:40.402Z,50.92
2023-05-14T16:21:08.922Z,50.92
2023-05-14T16:23:37.274Z,50.76
2023-05-14T16:26:06.522Z,50.76
2023-05-14T16:28:34.943Z,50.98
2023-05-14T16:31:03.842Z,51.09
2023-05-14T16:33:32.271Z,51.32
2023-05-14T16:36:00.690Z,52.09
2023-05-14T16:38:30.912Z,53.03
2023-05-14T16:40:59.276Z,53.50
2023-05-14T16:43:27.638Z,53.55
2023-05-14T16:45:56.027Z,53.81
2023-05-14T16:48:25.991Z,54.17
2023-05-14T16:50:56.049Z,54.22
2023-05-14T16:53:24.592Z,54.22
2023-05-14T16:55:53.080Z,54.04
2023-05-14T16:58:21.714Z,54.17
2023-05-14T17:00:50.116Z,54.21
2023-05-14T17:03:18.652Z,54.23
2023-05-14T17:05:49.784Z,53.93
2023-05-14T17:08:18.240Z,54.09
2023-05-14T17:10:46.782Z,55.01
2023-05-14T17:13:15.192Z,55.42
2023-05-14T17:16:02.076Z,55.24
2023-05-14T17:18:30.670Z,55.26
2023-05-14T17:20:59.257Z,55.44
2023-05-14T17:23:30.127Z,55.36
2023-05-14T17:25:58.645Z,55.63
2023-05-14T17:28:28.470Z,55.89
2023-05-14T17:30:57.421Z,56.41
2023-05-14T17:33:38.584Z,56.92
2023-05-14T17:36:40.940Z,57.17
2023-05-14T17:39:09.549Z,57.48
2023-05-14T17:41:38.031Z,57.48
2023-05-14T17:44:06.579Z,57.65
2023-05-14T17:46:36.702Z,57.55
2023-05-14T17:49:05.123Z,57.66
2023-05-14T17:51:33.628Z,57.96
2023-05-14T17:54:02.060Z,57.84
2023-05-14T17:56:30.461Z,57.80
2023-05-14T17:58:59.263Z,57.87
2023-05-14T18:01:31.894Z,58.09
2023-05-14T18:04:00.376Z,58.36
2023-05-14T18:06:28.808Z,58.49
2023-05-14T18:08:57.300Z,58.61
2023-05-14T18:11:26.556Z,58.72
2023-05-14T18:13:55.730Z,58.88
2023-05-14T18:16:24.469Z,59.21
2023-05-14T18:18:53.576Z,59.33
2023-05-14T18:21:22.873Z,59.47
2023-05-14T18:23:51.264Z,59.60
2023-05-14T18:26:19.942Z,59.67
2023-05-14T18:28:48.456Z,60.06
2023-05-14T18:31:16.838Z,60.32
2023-05-14T18:33:45.529Z,60.58
2023-05-14T18:36:14.091Z,60.79
2023-05-14T18:38:42.634Z,60.93
2023-05-14T18:41:11.337Z,61.26
2023-05-14T18:43:39.929Z,61.36
2023-05-14T18:46:09.113Z,61.51
2023-05-14T18:48:37.984Z,61.69
2023-05-14T18:51:06.394Z,61.95
2023-05-14T18:53:37.939Z,62.13
2023-05-14T18:56:06.748Z,62.13
2023-05-14T18:58:35.326Z,62.18
2023-05-14T19:01:03.712Z,62.41
2023-05-14T19:03:32.170Z,62.74
2023-05-14T19:06:00.739Z,62.95
2023-05-14T19:08:29.123Z,63.89
2023-05-14T19:10:57.500Z,64.61
2023-05-14T19:13:28.664Z,64.98
2023-05-14T19:15:57.105Z,64.99
2023-05-14T19:18:25.563Z,64.01
2023-05-14T19:20:53.979Z,64.24
2023-05-14T19:23:22.483Z,64.90
2023-05-14T19:25:50.976Z,65.43
2023-05-14T19:28:19.968Z,65.81
2023-05-14T19:30:50.862Z,66.53
2023-05-14T19:33:19.323Z,65.54
2023-05-14T19:35:47.723Z,66.66
2023-05-14T19:38:16.179Z,67.12
2023-05-14T19:40:45.195Z,67.33
2023-05-14T19:43:13.718Z,67.38
2023-05-14T19:45:42.791Z,68.17
2023-05-14T19:48:12.592Z,68.42
2023-05-14T19:50:41.652Z,68.59
2023-05-14T19:53:10.047Z,69.01
2023-05-14T19:55:38.502Z,69.35
2023-05-14T19:58:06.851Z,69.70
2023-05-14T20:00:37.069Z,69.97
2023-05-14T20:03:05.976Z,70.44
2023-05-14T20:05:35.289Z,70.82
2023-05-14T20:08:06.610Z,70.93
2023-05-14T20:10:35.051Z,71.07
2023-05-14T20:13:03.622Z,71.10
2023-05-14T20:15:31.981Z,71.83
2023-05-14T20:18:01.156Z,72.17
2023-05-14T20:20:32.866Z,72.03
2023-05-14T20:23:02.137Z,72.16
2023-05-14T20:25:32.806Z,72.23
2023-05-14T20:28:01.576Z,72.97
2023-05-14T20:30:30.106Z,73.39
2023-05-14T20:32:58.591Z,73.64
2023-05-14T20:35:29.957Z,74.13
2023-05-14T20:37:58.774Z,74.49
2023-05-14T20:40:27.501Z,74.73
2023-05-14T20:42:55.831Z,74.89
2023-05-14T20:45:24.287Z,75.10
2023-05-14T20:47:53.028Z,74.91
2023-05-14T20:50:22.662Z,75.30
2023-05-14T20:52:51.129Z,75.62
2023-05-14T20:55:19.835Z,76.12
2023-05-14T20:57:49.659Z,76.57
2023-05-14T21:00:18.799Z,77.00
2023-05-14T21:02:49.354Z,77.33
2023-05-14T21:05:18.089Z,77.66
2023-05-14T21:07:46.407Z,78.07
2023-05-14T21:10:14.843Z,78.42
2023-05-14T21:12:44.722Z,78.55
2023-05-14T21:15:13.282Z,78.66
2023-05-14T21:17:43.875Z,78.94
2023-05-14T21:20:13.585Z,79.23
2023-05-14T21:22:41.886Z,79.42
2023-05-14T21:25:11.111Z,79.98
2023-05-14T21:27:39.499Z,80.13
2023-05-14T21:30:08.833Z,80.52
2023-05-14T21:32:37.234Z,80.83
2023-05-14T21:35:06.134Z,81.17
2023-05-14T21:37:34.524Z,81.27
2023-05-14T21:40:02.893Z,81.56
2023-05-14T21:42:31.214Z,81.76
2023-05-14T21:44:59.628Z,82.11
2023-05-14T21:47:28.203Z,82.42
2023-05-14T21:49:56.653Z,82.61
2023-05-14T21:52:25.155Z,82.94
2023-05-14T21:54:53.537Z,83.11
2023-05-14T21:57:22.655Z,83.38
2023-05-14T21:59:50.970Z,83.51
2023-05-14T22:02:19.504Z,83.68
2023-05-14T22:04:47.902Z,84.01
2023-05-14T22:07:19.445Z,84.12
2023-05-14T22:09:48.147Z,84.32
2023-05-14T22:12:16.535Z,84.32
2023-05-14T22:14:46.304Z,84.73
2023-05-14T22:17:14.750Z,84.86
2023-05-14T22:19:43.075Z,85.09
2023-05-14T22:22:11.485Z,85.11
2023-05-14T22:24:39.845Z,85.36
2023-05-14T22:27:08.304Z,85.51
2023-05-14T22:29:38.154Z,85.81
2023-05-14T22:32:08.193Z,85.97
2023-05-14T22:34:37.450Z,85.96
2023-05-14T22:37:06.043Z,86.14
2023-05-14T22:39:34.861Z,86.32
2023-05-14T22:42:03.367Z,86.59
2023-05-14T22:44:31.709Z,86.73
2023-05-14T22:47:00.084Z,86.99
2023-05-14T22:49:28.554Z,87.10
2023-05-14T22:51:56.905Z,87.20
2023-05-14T22:54:25.343Z,87.52
2023-05-14T22:56:54.207Z,87.65
2023-05-14T22:59:23.685Z,87.78
2023-05-14T23:01:52.545Z,87.98
2023-05-14T23:04:21.059Z,88.18
2023-05-14T23:06:49.764Z,88.23
2023-05-14T23:09:18.126Z,88.36
2023-05-14T23:11:46.700Z,88.59
2023-05-14T23:14:15.328Z,88.66
2023-05-14T23:16:44.326Z,88.78
2023-05-14T23:19:13.049Z,89.02
2023-05-14T23:21:41.535Z,89.19
2023-05-14T23:24:10.011Z,89.31
2023-05-14T23:26:38.577Z,89.19
2023-05-14T23:29:07.115Z,89.36
2023-05-14T23:31:36.647Z,89.43
2023-05-14T23:34:05.150Z,89.77
2023-05-14T23:36:33.992Z,90.00
2023-05-14T23:39:02.392Z,89.98
2023-05-14T23:41:30.916Z,90.20
2023-05-14T23:43:59.224Z,90.40
2023-05-14T23:46:27.970Z,90.50
2023-05-14T23:48:57.138Z,90.56
2023-05-14T23:51:27.537Z,90.60
2023-05-14T23:53:58.506Z,90.65
2023-05-14T23:56:29.354Z,90.65
2023-05-14T23:58:57.782Z,90.88
